Time;durP1;ratioP1;P1;durP2;ratioP2;P2;SDS_P1;SDS_P2;PMS_P1;PMS_P2;Temp;Humidity;BMP_temperature;BMP_pressure;BME280_temperature;BME280_humidity;BME280_pressure;Samples;Min_cycle;Max_cycle;Signal;HPM_P1;HPM_P2
2022/10/13 00:00:25;;;;;;;0.10;0.10;;;10.10;99.90;;;;;;5035353;28;20029;-72
2022/10/13 00:02:51;;;;;;;0.20;0.20;;;10.10;99.90;;;;;;5019031;28;20132;-72
2022/10/13 00:05:17;;;;;;;3.20;1.27;;;10.10;99.90;;;;;;5052832;28;20496;-72
2022/10/13 00:07:43;;;;;;;0.10;0.10;;;10.20;99.90;;;;;;5035592;28;20546;-72
2022/10/13 00:10:09;;;;;;;0.13;0.13;;;10.10;99.90;;;;;;5035344;28;20078;-72
2022/10/13 00:12:36;;;;;;;0.45;0.45;;;10.10;99.90;;;;;;5053129;28;20021;-71
2022/10/13 00:15:02;;;;;;;0.30;0.30;;;10.20;99.90;;;;;;5035258;28;20456;-72
2022/10/13 00:17:28;;;;;;;0.40;0.40;;;10.20;99.90;;;;;;5035485;28;20492;-72
2022/10/13 00:19:54;;;;;;;0.38;0.38;;;10.20;99.90;;;;;;5053298;28;20033;-72
2022/10/13 00:22:19;;;;;;;0.17;0.17;;;10.30;99.90;;;;;;5034938;28;20163;-72
2022/10/13 00:24:52;;;;;;;0.20;0.20;;;10.30;99.90;;;;;;5052770;28;20028;-72
2022/10/13 00:27:18;;;;;;;0.20;0.20;;;10.40;99.90;;;;;;5053241;28;20053;-72
2022/10/13 00:29:45;;;;;;;0.20;0.20;;;10.40;99.90;;;;;;5035429;28;20388;-72
2022/10/13 00:32:10;;;;;;;0.10;0.10;;;10.50;99.90;;;;;;5035287;28;20021;-72
2022/10/13 00:34:37;;;;;;;0.10;0.10;;;10.60;99.90;;;;;;5052978;28;20048;-72
2022/10/13 00:37:03;;;;;;;0.10;0.10;;;10.60;99.90;;;;;;5052825;28;20029;-72
2022/10/13 00:39:29;;;;;;;0.20;0.20;;;10.70;99.90;;;;;;5035412;28;20115;-72
2022/10/13 00:41:57;;;;;;;0.10;0.10;;;10.80;99.90;;;;;;5053170;28;20044;-73
2022/10/13 00:45:11;;;;;;;0.10;0.10;;;10.80;99.90;;;;;;5035452;28;20121;-72
2022/10/13 00:47:44;;;;;;;0.10;0.10;;;10.60;99.90;;;;;;5018026;28;20047;-72
2022/10/13 00:50:16;;;;;;;0.10;0.10;;;10.50;99.90;;;;;;5053097;28;20025;-71
2022/10/13 00:52:43;;;;;;;0.25;0.25;;;10.60;99.90;;;;;;5053024;28;20055;-72
2022/10/13 00:55:12;;;;;;;0.13;0.13;;;10.70;99.90;;;;;;5036790;28;20025;-72
2022/10/13 00:57:40;;;;;;;0.10;0.10;;;10.70;99.90;;;;;;5038714;28;20056;-72
2022/10/13 01:00:07;;;;;;;0.13;0.13;;;10.80;99.90;;;;;;5056802;28;20562;-72
2022/10/13 01:02:37;;;;;;;0.10;0.10;;;10.60;99.90;;;;;;5056503;28;20029;-72
2022/10/13 01:05:05;;;;;;;0.15;0.15;;;10.50;99.90;;;;;;5038529;28;20508;-72
2022/10/13 01:07:32;;;;;;;0.15;0.15;;;10.40;99.90;;;;;;5056372;28;20051;-72
2022/10/13 01:10:00;;;;;;;0.10;0.10;;;10.20;99.90;;;;;;5056161;28;20028;-72
2022/10/13 01:12:48;;;;;;;0.13;0.13;;;10.20;99.90;;;;;;5038645;28;20053;-72
2022/10/13 01:15:33;;;;;;;2.08;1.75;;;10.30;99.90;;;;;;5020253;28;20017;-75
2022/10/13 01:18:24;;;;;;;0.22;0.22;;;10.20;99.90;;;;;;5054719;28;20503;-75
2022/10/13 01:20:53;;;;;;;0.20;0.20;;;10.20;99.90;;;;;;5020132;28;20043;-75
2022/10/13 01:23:32;;;;;;;0.10;0.10;;;10.20;99.90;;;;;;5054552;28;20032;-75
2022/10/13 01:26:29;;;;;;;1.30;1.20;;;10.30;99.90;;;;;;5054383;28;20025;-75
2022/10/13 01:29:10;;;;;;;1.77;1.40;;;10.20;99.90;;;;;;5054536;28;20033;-75
2022/10/13 01:31:50;;;;;;;0.52;0.52;;;10.00;99.90;;;;;;5054520;28;20025;-75
2022/10/13 01:34:26;;;;;;;0.10;0.10;;;10.10;99.90;;;;;;5054411;28;20159;-75
2022/10/13 01:37:05;;;;;;;0.30;0.30;;;10.10;99.90;;;;;;5036336;28;20377;-75
2022/10/13 01:39:51;;;;;;;0.30;0.30;;;10.00;99.90;;;;;;5019993;28;20029;-75
2022/10/13 01:42:23;;;;;;;0.20;0.20;;;10.00;99.90;;;;;;5036421;28;20033;-75
2022/10/13 01:44:53;;;;;;;0.10;0.10;;;10.00;99.90;;;;;;5054199;28;20118;-75
2022/10/13 01:47:20;;;;;;;0.10;0.10;;;10.10;99.90;;;;;;5019806;28;20074;-75
2022/10/13 01:49:49;;;;;;;0.20;0.20;;;10.10;99.90;;;;;;5054126;28;20028;-75
2022/10/13 01:52:17;;;;;;;0.20;0.20;;;10.10;99.90;;;;;;5036172;28;20033;-75
2022/10/13 01:54:49;;;;;;;0.20;0.20;;;10.10;99.90;;;;;;5019682;28;20045;-75
2022/10/13 01:57:31;;;;;;;0.20;0.20;;;10.00;99.90;;;;;;5053968;28;20029;-75
2022/10/13 02:00:00;;;;;;;0.20;0.20;;;9.90;99.90;;;;;;5053926;28;20029;-75
2022/10/13 02:02:42;;;;;;;0.45;0.45;;;9.90;99.90;;;;;;5053894;28;20028;-75
2022/10/13 02:05:48;;;;;;;0.13;0.13;;;9.90;99.90;;;;;;5020958;22;20046;-72
2022/10/13 02:08:39;;;;;;;0.10;0.10;;;9.90;99.90;;;;;;4975325;28;20366;-73
2022/10/13 02:11:19;;;;;;;7.13;3.92;;;10.00;99.90;;;;;;4994705;28;20394;-73
2022/10/13 02:14:11;;;;;;;0.10;0.10;;;10.10;99.90;;;;;;4994353;28;20026;-73
2022/10/13 02:16:44;;;;;;;0.10;0.10;;;10.20;99.90;;;;;;4994300;28;20081;-73
2022/10/13 02:19:13;;;;;;;0.17;0.17;;;10.30;99.90;;;;;;4976923;28;20034;-73
2022/10/13 02:21:40;;;;;;;0.20;0.20;;;10.20;99.90;;;;;;4994048;28;20073;-73
2022/10/13 02:24:07;;;;;;;0.20;0.20;;;10.40;99.90;;;;;;4976746;28;20430;-73
2022/10/13 02:26:34;;;;;;;0.17;0.17;;;10.50;99.90;;;;;;4994049;28;20046;-73
2022/10/13 02:29:07;;;;;;;0.10;0.10;;;10.20;99.90;;;;;;4994213;28;20018;-73
2022/10/13 02:31:33;;;;;;;0.20;0.20;;;10.10;99.90;;;;;;4994138;28;20037;-73
2022/10/13 02:33:59;;;;;;;0.20;0.20;;;10.20;99.90;;;;;;4976577;28;20038;-73
2022/10/13 02:36:24;;;;;;;0.20;0.20;;;10.20;99.90;;;;;;4976312;28;20022;-73
2022/10/13 02:38:50;;;;;;;0.17;0.17;;;10.20;99.90;;;;;;4993915;28;20381;-73
2022/10/13 02:41:16;;;;;;;0.17;0.17;;;10.10;99.90;;;;;;4976473;28;20273;-73
2022/10/13 02:43:41;;;;;;;0.13;0.13;;;10.00;99.90;;;;;;4976363;28;20032;-73
2022/10/13 02:46:07;;;;;;;0.20;0.20;;;10.00;99.90;;;;;;4993647;28;20390;-73
2022/10/13 02:48:33;;;;;;;0.10;0.10;;;10.10;99.90;;;;;;4976327;28;20018;-73
2022/10/13 02:50:58;;;;;;;0.10;0.10;;;10.10;99.90;;;;;;4976169;28;20039;-72
2022/10/13 02:53:24;;;;;;;0.20;0.20;;;9.90;99.90;;;;;;4976091;28;20061;-73
2022/10/13 02:55:50;;;;;;;0.20;0.20;;;9.60;99.90;;;;;;4960094;28;20120;-73
2022/10/13 02:58:16;;;;;;;0.10;0.10;;;9.50;99.90;;;;;;4976131;28;20026;-73
2022/10/13 03:00:41;;;;;;;7.68;0.90;;;9.50;99.90;;;;;;4992364;28;20034;-73
2022/10/13 03:03:08;;;;;;;0.20;0.20;;;9.40;99.90;;;;;;4992334;28;20041;-73
2022/10/13 03:05:34;;;;;;;0.15;0.15;;;9.30;99.90;;;;;;4993224;28;20045;-73
2022/10/13 03:08:00;;;;;;;0.10;0.10;;;9.50;99.90;;;;;;4975886;28;20034;-73
2022/10/13 03:10:26;;;;;;;0.20;0.20;;;9.50;99.90;;;;;;4975792;28;20026;-73
2022/10/13 03:12:54;;;;;;;0.20;0.20;;;9.50;99.90;;;;;;4992254;28;20550;-73
2022/10/13 03:15:19;;;;;;;0.30;0.30;;;9.70;99.90;;;;;;4975617;28;20018;-73
2022/10/13 03:17:45;;;;;;;0.10;0.10;;;9.80;99.90;;;;;;4992566;28;20030;-73
2022/10/13 03:20:11;;;;;;;0.10;0.10;;;9.90;99.90;;;;;;4975507;28;20030;-73
2022/10/13 03:22:37;;;;;;;0.10;0.10;;;9.80;99.90;;;;;;4993198;28;20034;-73
2022/10/13 03:25:03;;;;;;;0.20;0.20;;;9.80;99.90;;;;;;4975461;28;20076;-73
2022/10/13 03:27:28;;;;;;;0.10;0.10;;;9.60;99.90;;;;;;4975847;28;20118;-73
2022/10/13 03:29:54;;;;;;;0.20;0.20;;;9.80;99.90;;;;;;4993028;28;20113;-72
2022/10/13 03:32:20;;;;;;;0.10;0.10;;;9.90;99.90;;;;;;4993048;28;20022;-73
2022/10/13 03:34:45;;;;;;;0.20;0.20;;;10.10;99.90;;;;;;4991549;28;20026;-72
2022/10/13 03:37:11;;;;;;;5.50;4.95;;;10.00;99.90;;;;;;4975460;28;20022;-73
2022/10/13 03:39:37;;;;;;;0.15;0.15;;;9.60;99.90;;;;;;4975530;28;20045;-73
2022/10/13 03:42:03;;;;;;;0.20;0.20;;;9.60;99.90;;;;;;4992868;28;20041;-73
2022/10/13 03:44:29;;;;;;;0.20;0.20;;;9.60;99.90;;;;;;4991765;28;20106;-73
2022/10/13 03:46:54;;;;;;;0.20;0.20;;;9.60;99.90;;;;;;4992661;28;20033;-72
2022/10/13 03:49:20;;;;;;;0.20;0.20;;;9.70;99.90;;;;;;4991293;28;20117;-73
2022/10/13 03:51:46;;;;;;;0.20;0.20;;;9.90;99.90;;;;;;4992766;28;20030;-73
2022/10/13 03:54:12;;;;;;;0.40;0.30;;;10.00;99.90;;;;;;4991460;28;20433;-73
2022/10/13 03:56:39;;;;;;;0.43;0.43;;;10.00;99.90;;;;;;4991363;28;20034;-73
2022/10/13 03:59:06;;;;;;;0.10;0.10;;;9.60;99.90;;;;;;4992728;28;20025;-73
2022/10/13 04:01:32;;;;;;;0.20;0.20;;;9.60;99.90;;;;;;4975151;28;20034;-73
2022/10/13 04:04:01;;;;;;;0.15;0.15;;;9.70;99.90;;;;;;4992279;28;20109;-73
2022/10/13 04:06:27;;;;;;;0.10;0.10;;;9.70;99.90;;;;;;4992547;28;20482;-73
2022/10/13 04:08:54;;;;;;;0.20;0.20;;;9.90;99.90;;;;;;4975260;28;20114;-72
2022/10/13 04:11:20;;;;;;;2.05;1.70;;;10.00;99.90;;;;;;4992530;28;20027;-73
2022/10/13 04:13:46;;;;;;;0.20;0.20;;;9.90;99.90;;;;;;4992591;28;20084;-73
2022/10/13 04:16:22;;;;;;;0.20;0.20;;;9.90;99.90;;;;;;4975006;28;20547;-73
2022/10/13 04:18:54;;;;;;;0.20;0.20;;;10.00;99.90;;;;;;4992473;28;20030;-73
2022/10/13 04:21:20;;;;;;;0.20;0.20;;;9.90;99.90;;;;;;4992238;28;20026;-73
2022/10/13 04:23:46;;;;;;;2.40;1.00;;;9.90;99.90;;;;;;4992398;28;20052;-73
2022/10/13 04:26:21;;;;;;;0.20;0.20;;;9.90;99.90;;;;;;4974836;28;20508;-73
2022/10/13 04:28:48;;;;;;;0.17;0.17;;;9.70;99.90;;;;;;4993645;28;20026;-73
2022/10/13 04:31:14;;;;;;;0.10;0.10;;;9.70;99.90;;;;;;4978867;28;20050;-73
2022/10/13 04:33:40;;;;;;;0.82;0.77;;;9.70;99.90;;;;;;4978771;28;20049;-73
2022/10/13 04:36:08;;;;;;;0.40;0.40;;;9.60;99.90;;;;;;4962528;28;20022;-72
2022/10/13 04:38:34;;;;;;;0.20;0.20;;;9.40;99.90;;;;;;4994884;28;20019;-73
2022/10/13 04:41:03;;;;;;;0.10;0.10;;;9.60;99.90;;;;;;4996213;28;20022;-73
2022/10/13 04:43:30;;;;;;;0.17;0.17;;;9.80;99.90;;;;;;4996002;28;20085;-73
2022/10/13 04:46:17;;;;;;;0.60;0.60;;;9.70;99.90;;;;;;4995807;28;20430;-73
2022/10/13 04:48:44;;;;;;;0.25;0.25;;;9.80;99.90;;;;;;4978525;28;20371;-72
2022/10/13 04:51:16;;;;;;;0.10;0.10;;;9.70;99.90;;;;;;4995853;28;20089;-73
2022/10/13 04:53:41;;;;;;;;;;;9.80;99.90;;;;;;4979011;28;20548;-73
2022/10/13 04:56:10;;;;;;;0.30;0.30;;;10.00;99.90;;;;;;4995829;28;19910;-73
2022/10/13 04:58:37;;;;;;;0.17;0.17;;;10.10;99.90;;;;;;4978390;28;20076;-74
2022/10/13 05:01:05;;;;;;;0.10;0.10;;;9.90;99.90;;;;;;5000696;28;20389;-73
2022/10/13 05:03:32;;;;;;;0.20;0.20;;;10.00;99.90;;;;;;4997733;28;20474;-73
2022/10/13 05:05:58;;;;;;;0.10;0.10;;;10.00;99.90;;;;;;5014725;28;20052;-73
2022/10/13 05:08:24;;;;;;;1.73;1.63;;;10.00;99.90;;;;;;4974481;28;20053;-73
2022/10/13 05:10:56;;;;;;;0.10;0.10;;;10.00;99.90;;;;;;4995421;28;20490;-73
2022/10/13 05:13:23;;;;;;;1.02;1.00;;;9.90;99.90;;;;;;4977915;28;20022;-73
2022/10/13 05:15:50;;;;;;;0.10;0.10;;;10.00;99.90;;;;;;4995086;28;20023;-73
2022/10/13 05:18:16;;;;;;;0.10;0.10;;;10.00;99.90;;;;;;4995020;28;20207;-73
2022/10/13 05:20:41;;;;;;;0.10;0.10;;;10.00;99.90;;;;;;4996973;28;20037;-73
2022/10/13 05:23:07;;;;;;;0.10;0.10;;;10.10;99.90;;;;;;4997448;28;20068;-73
2022/10/13 05:25:34;;;;;;;5.70;0.85;;;10.20;99.90;;;;;;4997020;28;20048;-73
2022/10/13 05:28:00;;;;;;;0.20;0.20;;;10.20;99.90;;;;;;5014735;28;20152;-73
2022/10/13 05:30:26;;;;;;;0.20;0.20;;;10.10;99.90;;;;;;5003750;28;20496;-73
2022/10/13 05:32:52;;;;;;;0.20;0.20;;;10.00;99.90;;;;;;4994855;28;20684;-73
2022/10/13 05:35:17;;;;;;;0.10;0.10;;;10.00;99.90;;;;;;4980308;28;20070;-72
2022/10/13 05:37:43;;;;;;;0.30;0.30;;;10.00;99.90;;;;;;4960846;28;20022;-73
2022/10/13 05:40:09;;;;;;;0.10;0.10;;;10.10;99.90;;;;;;4994238;28;20106;-73
2022/10/13 05:42:36;;;;;;;0.10;0.10;;;10.10;99.90;;;;;;4961173;28;20030;-73
2022/10/13 05:45:02;;;;;;;0.10;0.10;;;10.20;99.90;;;;;;4977095;28;20458;-73
2022/10/13 05:47:28;;;;;;;0.82;0.82;;;10.20;99.90;;;;;;4977197;28;20037;-73
2022/10/13 05:49:54;;;;;;;1.88;0.22;;;10.30;99.90;;;;;;4994923;28;20042;-73
2022/10/13 05:52:22;;;;;;;0.10;0.10;;;10.30;99.90;;;;;;4977180;28;20029;-73
2022/10/13 05:54:53;;;;;;;0.13;0.13;;;10.40;99.90;;;;;;4994660;28;20058;-73
2022/10/13 05:57:34;;;;;;;0.10;0.10;;;10.50;99.90;;;;;;4994920;28;20486;-73
2022/10/13 06:00:11;;;;;;;0.10;0.10;;;10.60;99.90;;;;;;4994460;28;20023;-73
2022/10/13 06:02:41;;;;;;;0.20;0.20;;;10.80;99.90;;;;;;4994554;28;20088;-73
2022/10/13 06:05:16;;;;;;;0.10;0.10;;;10.70;99.90;;;;;;4976747;28;20573;-73
2022/10/13 06:07:43;;;;;;;1.45;1.00;;;10.80;99.90;;;;;;4980321;28;20474;-72
2022/10/13 06:10:10;;;;;;;0.35;0.35;;;11.00;99.90;;;;;;4996306;28;20034;-73
2022/10/13 06:12:36;;;;;;;0.10;0.10;;;11.00;99.90;;;;;;5013872;28;20044;-73
2022/10/13 06:15:03;;;;;;;0.10;0.10;;;10.90;99.90;;;;;;4996159;28;20022;-73
2022/10/13 06:17:29;;;;;;;0.70;0.70;;;11.00;99.90;;;;;;4980173;28;20030;-73
2022/10/13 06:19:54;;;;;;;0.10;0.10;;;11.00;99.90;;;;;;5013856;28;20091;-73
2022/10/13 06:22:20;;;;;;;0.10;0.10;;;11.10;99.90;;;;;;5012506;28;20117;-73
2022/10/13 06:24:47;;;;;;;3.38;3.20;;;11.20;99.90;;;;;;4995965;28;20062;-72
2022/10/13 06:27:13;;;;;;;8.68;3.70;;;11.10;99.90;;;;;;4995946;28;20026;-73
2022/10/13 06:29:38;;;;;;;0.10;0.10;;;11.00;99.90;;;;;;4995845;28;20037;-73
2022/10/13 06:32:05;;;;;;;0.10;0.10;;;11.20;99.90;;;;;;5013453;28;20018;-73
2022/10/13 06:34:31;;;;;;;0.03;0.03;;;11.20;99.90;;;;;;5013574;28;20053;-74
2022/10/13 06:36:57;;;;;;;0.10;0.10;;;11.20;99.90;;;;;;5013338;28;20030;-73
2022/10/13 06:39:23;;;;;;;0.52;0.52;;;11.30;99.90;;;;;;5013332;28;20029;-71
2022/10/13 06:41:49;;;;;;;0.00;0.00;;;11.40;99.90;;;;;;5013320;28;20025;-72
2022/10/13 06:44:15;;;;;;;0.10;0.10;;;11.40;99.90;;;;;;5013253;28;20022;-73
2022/10/13 06:46:40;;;;;;;0.10;0.10;;;11.50;99.90;;;;;;4995570;28;20354;-74
2022/10/13 06:49:09;;;;;;;0.20;0.20;;;11.60;99.90;;;;;;5011979;28;20030;-72
2022/10/13 06:51:35;;;;;;;0.10;0.10;;;11.60;99.90;;;;;;5011777;28;20516;-73
2022/10/13 06:54:00;;;;;;;0.10;0.10;;;11.60;99.90;;;;;;5013088;28;20026;-73
2022/10/13 06:56:28;;;;;;;1.38;1.27;;;11.60;99.90;;;;;;5011663;28;20032;-73
2022/10/13 06:58:54;;;;;;;0.52;0.52;;;11.60;99.90;;;;;;5013026;28;20033;-74
2022/10/13 07:01:19;;;;;;;1.35;0.70;;;11.70;99.90;;;;;;4995383;28;20038;-73
2022/10/13 07:03:49;;;;;;;0.73;0.60;;;11.70;99.90;;;;;;4995257;28;20037;-72
2022/10/13 07:06:15;;;;;;;1.70;1.60;;;11.80;99.90;;;;;;5012792;28;20033;-71
2022/10/13 07:08:41;;;;;;;2.63;1.92;;;11.70;99.90;;;;;;5011733;28;20032;-71
2022/10/13 07:11:12;;;;;;;1.20;0.75;;;11.60;99.90;;;;;;4994911;28;20409;-72
2022/10/13 07:13:39;;;;;;;0.30;0.30;;;11.50;99.90;;;;;;5012722;28;20025;-71
2022/10/13 07:16:05;;;;;;;8.82;3.03;;;11.40;99.90;;;;;;5012497;28;20148;-73
2022/10/13 07:18:32;;;;;;;3.95;1.23;;;11.30;99.90;;;;;;5012571;28;20026;-73
2022/10/13 07:20:58;;;;;;;6.43;2.30;;;11.20;99.90;;;;;;5012637;28;20413;-73
2022/10/13 07:23:25;;;;;;;5.63;2.85;;;11.10;99.90;;;;;;5012716;28;20046;-72
2022/10/13 07:25:51;;;;;;;1.33;0.45;;;11.10;99.90;;;;;;4994988;28;20033;-73
2022/10/13 07:28:19;;;;;;;2.17;1.75;;;11.00;99.90;;;;;;5012629;28;20036;-73
2022/10/13 07:30:44;;;;;;;4.68;3.00;;;11.10;99.90;;;;;;4994805;28;20133;-72
2022/10/13 07:33:10;;;;;;;2.58;1.65;;;11.10;99.90;;;;;;4994922;28;20097;-73
2022/10/13 07:35:39;;;;;;;30.58;19.70;;;11.20;99.90;;;;;;4994821;28;20101;-73
2022/10/13 07:38:07;;;;;;;0.00;0.00;;;11.40;99.90;;;;;;4995225;28;20109;-73
2022/10/13 07:40:33;;;;;;;1.10;0.98;;;11.60;99.90;;;;;;4994875;28;20036;-72
2022/10/13 07:42:59;;;;;;;0.90;0.90;;;11.60;99.90;;;;;;5012298;28;20049;-73
2022/10/13 07:45:25;;;;;;;2.55;1.08;;;11.60;99.90;;;;;;4994545;28;20049;-72
2022/10/13 07:47:51;;;;;;;0.00;0.00;;;11.70;99.90;;;;;;5012399;28;20060;-71
2022/10/13 07:50:16;;;;;;;0.13;0.13;;;11.80;99.90;;;;;;5011117;28;20033;-73
2022/10/13 07:52:42;;;;;;;0.35;0.35;;;12.00;99.90;;;;;;5012335;28;20436;-73
2022/10/13 07:55:08;;;;;;;2.13;0.65;;;12.10;99.90;;;;;;4994394;28;20022;-73
2022/10/13 07:57:34;;;;;;;0.00;0.00;;;12.20;99.90;;;;;;4994535;28;20026;-73
2022/10/13 08:00:00;;;;;;;0.80;0.80;;;12.30;99.90;;;;;;5012043;28;20029;-72
2022/10/13 08:02:26;;;;;;;0.03;0.03;;;12.30;99.90;;;;;;5012052;28;20036;-72
2022/10/13 08:04:51;;;;;;;0.57;0.57;;;12.50;99.90;;;;;;5011477;28;20037;-72
2022/10/13 08:07:17;;;;;;;2.10;1.63;;;12.60;99.90;;;;;;4978372;28;20121;-72
2022/10/13 08:09:44;;;;;;;0.60;0.60;;;12.70;99.90;;;;;;5010762;28;20034;-72
2022/10/13 08:12:10;;;;;;;0.10;0.10;;;12.70;99.90;;;;;;5012060;28;20053;-73
2022/10/13 08:14:36;;;;;;;0.20;0.20;;;12.70;99.90;;;;;;5011962;28;20022;-72
2022/10/13 08:17:02;;;;;;;0.10;0.10;;;12.80;99.90;;;;;;5011878;28;20355;-73
2022/10/13 08:19:28;;;;;;;0.98;0.32;;;12.80;99.90;;;;;;4994488;28;20029;-73
2022/10/13 08:21:54;;;;;;;0.10;0.10;;;12.80;99.90;;;;;;5011915;28;20495;-72
2022/10/13 08:24:23;;;;;;;0.10;0.10;;;12.90;99.90;;;;;;4978064;28;20512;-72
2022/10/13 08:26:49;;;;;;;0.08;0.08;;;12.90;99.90;;;;;;5011826;28;20489;-73
2022/10/13 08:29:16;;;;;;;0.20;0.20;;;13.10;99.90;;;;;;4994225;28;20025;-73
2022/10/13 08:31:42;;;;;;;0.22;0.22;;;13.20;99.90;;;;;;4994467;28;20088;-72
2022/10/13 08:34:09;;;;;;;0.10;0.10;;;13.30;99.90;;;;;;5011867;28;20026;-73
2022/10/13 08:36:35;;;;;;;0.10;0.10;;;13.30;99.90;;;;;;5011865;28;20053;-73
2022/10/13 08:39:02;;;;;;;0.28;0.25;;;13.40;99.90;;;;;;4994195;28;20022;-72
2022/10/13 08:41:31;;;;;;;0.10;0.10;;;13.20;99.90;;;;;;5011660;28;20045;-72
2022/10/13 08:44:04;;;;;;;0.20;0.20;;;13.30;99.90;;;;;;5012342;28;20105;-73
2022/10/13 08:46:42;;;;;;;0.85;0.85;;;13.50;99.90;;;;;;4993977;28;20041;-72
2022/10/13 08:49:08;;;;;;;0.80;0.80;;;13.40;99.90;;;;;;5011813;28;20038;-72
2022/10/13 08:51:35;;;;;;;0.30;0.30;;;13.40;99.90;;;;;;5011648;28;20038;-73
2022/10/13 08:54:01;;;;;;;0.65;0.65;;;13.40;99.90;;;;;;5010324;28;20076;-72
2022/10/13 08:56:32;;;;;;;0.00;0.00;;;13.50;99.90;;;;;;5011529;28;20084;-73
2022/10/13 08:59:00;;;;;;;2.00;0.85;;;13.70;99.90;;;;;;4994146;28;20041;-72
2022/10/13 09:01:30;;;;;;;0.32;0.32;;;13.80;99.90;;;;;;5011736;28;20030;-73
2022/10/13 09:04:02;;;;;;;0.68;0.68;;;14.10;99.90;;;;;;5011550;28;20481;-73
2022/10/13 09:06:35;;;;;;;3.70;2.47;;;14.30;99.90;;;;;;4993840;28;20422;-73
2022/10/13 09:09:02;;;;;;;0.90;0.90;;;14.40;99.90;;;;;;4994073;28;20029;-73
2022/10/13 09:11:53;;;;;;;0.10;0.10;;;14.30;99.90;;;;;;4994118;28;20030;-73
2022/10/13 09:14:22;;;;;;;0.10;0.10;;;14.60;99.90;;;;;;4977780;28;20073;-73
2022/10/13 09:16:49;;;;;;;0.47;0.47;;;15.00;99.90;;;;;;4996213;28;20065;-73
2022/10/13 09:19:23;;;;;;;0.10;0.10;;;15.20;99.90;;;;;;5015027;28;20026;-73
2022/10/13 09:21:50;;;;;;;0.10;0.10;;;15.00;99.90;;;;;;4981295;28;20117;-73
2022/10/13 09:24:19;;;;;;;0.20;0.20;;;15.00;99.90;;;;;;5014937;28;20018;-73
2022/10/13 09:26:47;;;;;;;0.10;0.10;;;14.90;99.90;;;;;;4980719;28;20033;-72
2022/10/13 09:29:19;;;;;;;0.10;0.10;;;15.00;99.90;;;;;;4980787;28;20490;-72
2022/10/13 09:31:45;;;;;;;0.08;0.08;;;15.10;99.90;;;;;;4996954;28;20061;-72
2022/10/13 09:34:23;;;;;;;0.10;0.10;;;15.10;99.90;;;;;;5014663;28;20026;-73
2022/10/13 09:36:55;;;;;;;0.10;0.10;;;15.10;99.90;;;;;;5014537;28;20025;-73
2022/10/13 09:39:21;;;;;;;0.68;0.68;;;15.20;99.90;;;;;;5014629;28;20080;-73
2022/10/13 09:41:47;;;;;;;0.10;0.10;;;15.20;99.90;;;;;;5014637;28;20017;-72
2022/10/13 09:44:30;;;;;;;0.40;0.40;;;15.30;99.90;;;;;;5014503;28;20438;-72
2022/10/13 09:46:59;;;;;;;0.90;0.82;;;15.70;99.90;;;;;;4996791;28;20029;-73
2022/10/13 09:49:39;;;;;;;0.10;0.10;;;15.60;99.90;;;;;;5014346;28;20084;-73
2022/10/13 09:52:25;;;;;;;0.13;0.13;;;15.70;99.90;;;;;;4996810;28;20033;-73
2022/10/13 09:54:55;;;;;;;5.25;0.90;;;15.90;99.90;;;;;;4996352;28;20053;-73
2022/10/13 09:57:44;;;;;;;0.20;0.20;;;16.10;99.90;;;;;;4996509;28;20389;-73
2022/10/13 10:00:24;;;;;;;0.10;0.10;;;16.10;99.90;;;;;;5014051;28;20045;-73
2022/10/13 10:03:23;;;;;;;0.73;0.73;;;16.40;99.90;;;;;;4980386;28;20053;-72
2022/10/13 10:06:08;;;;;;;1.00;1.00;;;16.80;99.90;;;;;;5014004;28;20381;-72
2022/10/13 10:08:49;;;;;;;0.40;0.40;;;17.40;99.90;;;;;;5014049;28;20439;-72
2022/10/13 10:11:19;;;;;;;0.20;0.20;;;17.90;99.90;;;;;;4996441;28;20029;-73
2022/10/13 10:13:45;;;;;;;0.25;0.25;;;18.00;99.90;;;;;;4980290;28;20094;-72
2022/10/13 10:16:34;;;;;;;0.00;0.00;;;18.00;99.90;;;;;;4996142;28;20025;-73
2022/10/13 10:19:19;;;;;;;1.17;0.88;;;18.20;99.90;;;;;;4980003;28;20084;-72
2022/10/13 10:22:09;;;;;;;0.20;0.20;;;18.40;99.90;;;;;;5014113;28;20478;-73
2022/10/13 10:24:49;;;;;;;1.98;1.77;;;18.40;99.90;;;;;;5012551;28;20030;-73
2022/10/13 10:27:32;;;;;;;0.30;0.30;;;18.50;99.90;;;;;;5013281;28;20036;-73
2022/10/13 10:30:04;;;;;;;0.10;0.10;;;18.80;99.90;;;;;;4995883;28;20026;-72
2022/10/13 10:32:48;;;;;;;2.63;1.88;;;18.90;99.90;;;;;;5013537;28;20018;-72
2022/10/13 10:35:25;;;;;;;0.80;0.80;;;19.30;99.90;;;;;;5013356;28;20036;-73
2022/10/13 10:38:16;;;;;;;16.58;1.25;;;19.70;99.90;;;;;;5013592;28;20050;-73
2022/10/13 10:41:24;;;;;;;1.23;1.13;;;19.90;99.90;;;;;;5013396;28;20034;-73
2022/10/13 10:44:17;;;;;;;0.15;0.15;;;20.20;99.90;;;;;;4995628;28;20108;-73
2022/10/13 10:46:57;;;;;;;0.10;0.10;;;20.00;99.90;;;;;;4995850;28;20482;-72
2022/10/13 10:49:30;;;;;;;0.75;0.75;;;20.30;99.90;;;;;;5013504;28;20371;-72
2022/10/13 10:51:58;;;;;;;0.08;0.08;;;20.60;99.90;;;;;;4995694;28;20544;-73
2022/10/13 10:54:51;;;;;;;0.35;0.35;;;20.40;99.90;;;;;;5013116;28;20026;-73
2022/10/13 10:57:40;;;;;;;0.52;0.52;;;20.10;99.90;;;;;;5011845;28;20060;-72
2022/10/13 11:00:18;;;;;;;0.10;0.10;;;19.60;99.90;;;;;;4995353;28;20029;-72
2022/10/13 11:03:04;;;;;;;0.10;0.10;;;19.10;99.90;;;;;;4995336;28;20025;-72
2022/10/13 11:05:59;;;;;;;0.75;0.75;;;18.90;99.90;;;;;;4998502;28;20065;-73
2022/10/13 11:08:27;;;;;;;0.10;0.10;;;19.10;99.90;;;;;;5012974;28;20022;-73
2022/10/13 11:11:32;;;;;;;1.48;1.00;;;19.70;99.90;;;;;;5012741;28;20448;-72
2022/10/13 11:14:05;;;;;;;0.25;0.25;;;19.80;99.90;;;;;;5012731;28;20030;-73
2022/10/13 11:16:32;;;;;;;0.85;0.75;;;19.50;99.90;;;;;;4994815;28;20113;-72
2022/10/13 11:19:24;;;;;;;0.22;0.22;;;19.20;99.90;;;;;;5012591;28;20029;-72
2022/10/13 11:21:52;;;;;;;0.65;0.65;;;18.90;99.90;;;;;;4995052;28;20022;-73
2022/10/13 11:24:33;;;;;;;0.10;0.10;;;18.80;99.90;;;;;;4995216;28;20088;-73
2022/10/13 11:27:14;;;;;;;1.10;0.47;;;18.80;99.90;;;;;;4978590;28;20113;-73
2022/10/13 11:29:45;;;;;;;0.22;0.22;;;18.80;99.90;;;;;;4994829;28;20101;-73
2022/10/13 11:35:00;;;;;;;0.70;0.70;;;19.40;99.90;;;;;;4994422;28;20028;-72
2022/10/13 11:37:48;;;;;;;0.93;0.73;;;19.50;99.90;;;;;;5012499;28;20013;-72
2022/10/13 11:40:31;;;;;;;0.38;0.38;;;19.40;99.90;;;;;;4994572;28;20037;-72
2022/10/13 11:43:21;;;;;;;2.25;1.83;;;19.40;99.90;;;;;;4994839;28;20030;-73
2022/10/13 11:46:16;;;;;;;0.63;0.63;;;19.00;99.90;;;;;;4994838;28;20398;-73
2022/10/13 11:48:59;;;;;;;0.70;0.70;;;19.40;99.90;;;;;;4995073;28;20042;-73
2022/10/13 11:51:30;;;;;;;1.25;0.43;;;19.60;99.90;;;;;;5012183;28;20056;-71
2022/10/13 11:54:27;;;;;;;0.38;0.38;;;19.60;99.90;;;;;;5011777;28;20393;-70
2022/10/13 11:56:57;;;;;;;0.20;0.20;;;19.20;99.90;;;;;;5012047;28;20053;-70
2022/10/13 11:59:32;;;;;;;0.40;0.30;;;19.30;99.90;;;;;;5011927;28;20022;-70
2022/10/13 12:02:11;;;;;;;3.17;2.95;;;19.50;99.90;;;;;;5011959;28;20045;-69
2022/10/13 12:04:40;;;;;;;0.10;0.10;;;19.30;99.90;;;;;;5011915;28;20498;-70
2022/10/13 12:07:09;;;;;;;0.10;0.10;;;19.20;99.90;;;;;;5011943;28;20034;-70
2022/10/13 12:09:56;;;;;;;0.30;0.30;;;18.90;99.90;;;;;;4994318;28;20118;-70
2022/10/13 12:12:23;;;;;;;0.20;0.20;;;18.70;99.90;;;;;;5012140;28;20018;-69
2022/10/13 12:14:54;;;;;;;0.00;0.00;;;18.60;99.90;;;;;;4994187;28;20072;-71
2022/10/13 12:17:20;;;;;;;0.10;0.10;;;18.60;99.90;;;;;;4994354;28;20359;-72
2022/10/13 12:19:46;;;;;;;0.10;0.10;;;18.40;99.90;;;;;;5011810;28;20028;-72
2022/10/13 12:22:13;;;;;;;0.00;0.00;;;18.30;99.90;;;;;;4994271;28;20482;-72
2022/10/13 12:24:39;;;;;;;0.20;0.20;;;18.30;99.90;;;;;;4994138;28;20056;-72
2022/10/13 12:27:20;;;;;;;1.33;1.20;;;18.40;99.90;;;;;;5011870;28;20018;-72
2022/10/13 12:29:46;;;;;;;0.10;0.10;;;18.40;99.90;;;;;;5011992;28;20108;-72
2022/10/13 12:32:34;;;;;;;0.10;0.10;;;18.20;99.90;;;;;;5011857;28;20478;-73
2022/10/13 12:35:31;;;;;;;2.30;0.55;;;18.20;99.90;;;;;;5010310;28;20026;-73
2022/10/13 12:38:01;;;;;;;0.00;0.00;;;18.10;99.90;;;;;;4978932;28;20048;-73
2022/10/13 12:40:28;;;;;;;0.40;0.30;;;18.00;99.90;;;;;;5011846;28;20117;-73
2022/10/13 12:42:55;;;;;;;0.40;0.40;;;17.90;99.90;;;;;;4994386;28;20058;-72
2022/10/13 12:45:24;;;;;;;95.82;14.15;;;17.90;99.90;;;;;;4994079;28;20030;-72
2022/10/13 12:47:52;;;;;;;0.13;0.13;;;17.80;99.90;;;;;;4994110;28;20084;-72
2022/10/13 12:50:26;;;;;;;0.43;0.43;;;17.90;99.90;;;;;;4996209;28;20257;-73
2022/10/13 12:53:22;;;;;;;0.10;0.10;;;18.00;99.90;;;;;;5015324;28;20052;-73
2022/10/13 12:55:54;;;;;;;0.10;0.10;;;18.00;99.90;;;;;;5015143;28;20026;-73
2022/10/13 12:58:30;;;;;;;0.10;0.10;;;18.00;99.90;;;;;;5014287;28;20052;-73
2022/10/13 13:01:19;;;;;;;0.10;0.10;;;18.00;99.90;;;;;;5015350;28;20037;-74
2022/10/13 13:03:54;;;;;;;0.10;0.10;;;17.90;99.90;;;;;;5015109;28;20021;-73
2022/10/13 13:06:24;;;;;;;2.65;1.27;;;17.90;99.90;;;;;;4969900;28;20490;-73
2022/10/13 13:09:26;;;;;;;1.92;0.85;;;17.80;99.90;;;;;;5002822;28;20084;-73
2022/10/13 13:12:07;;;;;;;;;;;17.60;99.90;;;;;;4997521;28;20497;-73